Time;durP1;ratioP1;P1;durP2;ratioP2;P2;SDS_P1;SDS_P2;PMS_P1;PMS_P2;Temp;Humidity;BMP_temperature;BMP_pressure;BME280_temperature;BME280_humidity;BME280_pressure;Samples;Min_cycle;Max_cycle;Signal;HPM_P1;HPM_P2
2022/01/24 00:01:05;;;;;;;;;;;;;;;;;;5134785;27;19947;-75
2022/01/24 00:03:31;;;;;;;;;;;;;;;;;;5135469;27;19942;-75
2022/01/24 00:05:56;;;;;;;;;;;;;;;;;;5135642;27;19916;-75
2022/01/24 00:08:22;;;;;;;;;;;;;;;;;;5135223;27;19916;-76
2022/01/24 00:10:49;;;;;;;;;;;;;;;;;;5135178;27;19972;-76
2022/01/24 00:16:02;;;;;;;;;;;;;;;;;;5135254;27;19917;-75
2022/01/24 00:18:35;;;;;;;;;;;;;;;;;;5135058;27;20432;-76
2022/01/24 00:29:26;;;;;;;;;;;;;;;;;;5099801;27;19915;-76
2022/01/24 00:31:55;;;;;;;;;;;;;;;;;;5116500;27;19915;-76
2022/01/24 00:34:23;;;;;;;;;;;;;;;;;;5116072;27;19938;-76
2022/01/24 00:36:49;;;;;;;;;;;;;;;;;;5115652;27;19923;-75
2022/01/24 00:39:15;;;;;;;;;;;;;;;;;;5135049;27;19922;-75
2022/01/24 00:41:50;;;;;;;;;;;;;;;;;;5135153;27;19911;-75
2022/01/24 00:46:52;;;;;;;;;;;;;;;;;;5134811;27;20003;-75
2022/01/24 00:54:48;;;;;;;;;;;;;;;;;;5134883;27;20010;-75
2022/01/24 00:57:13;;;;;;;;;;;;;;;;;;5134901;27;20014;-76
2022/01/24 00:59:39;;;;;;;;;;;;;;;;;;5134273;27;19962;-76
2022/01/24 01:02:04;;;;;;;;;;;;;;;;;;5115649;28;19937;-76
2022/01/24 01:04:56;;;;;;;;;;;;;;;;;;5133821;28;20408;-76
2022/01/24 01:07:24;;;;;;;;;;;;;;;;;;5133477;28;19954;-76
2022/01/24 01:20:46;;;;;;;;;;;;;;;;;;5134648;28;19915;-76
2022/01/24 01:23:12;;;;;;;;;;;;;;;;;;5134241;28;20034;-76
2022/01/24 01:25:39;;;;;;;;;;;;;;;;;;5134339;28;20413;-76
2022/01/24 01:28:04;;;;;;;;;;;;;;;;;;5134320;27;19915;-76
2022/01/24 01:30:38;;;;;;;;;;;;;;;;;;5134265;28;19922;-76
2022/01/24 01:33:13;;;;;;;;;;;;;;;;;;5134308;28;19915;-75
2022/01/24 01:54:51;;;;;;;;;;;;;;;;;;5138114;27;19950;-76
2022/01/24 01:57:18;;;;;;;;;;;;;;;;;;5119299;27;19915;-75
2022/01/24 01:59:44;;;;;;;;;;;;;;;;;;5119382;27;20384;-76
2022/01/24 02:02:09;;;;;;;;;;;;;;;;;;5119483;27;19919;-75
2022/01/24 02:04:35;;;;;;;;;;;;;;;;;;5137294;27;19919;-75
2022/01/24 02:07:02;;;;;;;;;;;;;;;;;;5137968;27;19922;-75
2022/01/24 02:09:31;;;;;;;;;;;;;;;;;;5137988;27;19915;-75
2022/01/24 02:11:56;;;;;;;;;;;;;;;;;;5137736;27;20008;-75
2022/01/24 02:14:28;;;;;;;;;;;;;;;;;;5137661;27;20339;-76
2022/01/24 02:17:00;;;;;;;;;;;;;;;;;;5137426;27;19915;-76
2022/01/24 02:22:28;;;;;;;;;;;;;;;;;;5137460;27;19915;-76
2022/01/24 02:25:01;;;;;;;;;;;;;;;;;;5136992;27;20296;-76
2022/01/24 02:27:33;;;;;;;;;;;;;;;;;;5119253;27;19916;-76
2022/01/24 02:32:43;;;;;;;;;;;;;;;;;;5136756;27;19926;-76
2022/01/24 02:35:08;;;;;;;;;;;;;;;;;;5118657;27;19915;-76
2022/01/24 02:37:34;;;;;;;;;;;;;;;;;;5136972;27;19922;-76
2022/01/24 02:40:07;;;;;;;;;;;;;;;;;;5137180;27;19927;-75
2022/01/24 02:53:32;;;;;;;;;;;;;;;;;;5136449;27;19922;-76
2022/01/24 02:55:57;;;;;;;;;;;;;;;;;;5136938;27;20316;-76
2022/01/24 02:58:23;;;;;;;;;;;;;;;;;;5137022;27;20006;-76
2022/01/24 03:00:49;;;;;;;;;;;;;;;;;;5137164;27;20369;-76
2022/01/24 03:03:15;;;;;;;;;;;;;;;;;;5136195;27;20332;-76
2022/01/24 03:05:40;;;;;;;;;;;;;;;;;;5136904;27;19911;-75
2022/01/24 03:08:06;;;;;;;;;;;;;;;;;;5118484;27;19975;-75
2022/01/24 03:10:41;;;;;;;;;;;;;;;;;;5136414;27;19920;-76
2022/01/24 03:15:36;;;;;;;;;;;;;;;;;;5137446;27;19922;-77
2022/01/24 03:18:01;;;;;;;;;;;;;;;;;;5138217;27;20421;-78
2022/01/24 03:20:27;;;;;;;;;;;;;;;;;;5138071;27;20010;-77
2022/01/24 03:22:52;;;;;;;;;;;;;;;;;;5118406;27;19919;-76
2022/01/24 03:25:17;;;;;;;;;;;;;;;;;;5135770;27;19970;-77
2022/01/24 03:27:42;;;;;;;;;;;;;;;;;;5135386;27;19954;-76
2022/01/24 03:30:08;;;;;;;;;;;;;;;;;;5117102;27;19920;-76
2022/01/24 03:32:33;;;;;;;;;;;;;;;;;;5135998;27;20373;-76
2022/01/24 03:34:59;;;;;;;;;;;;;;;;;;5135990;27;19959;-76
2022/01/24 03:37:24;;;;;;;;;;;;;;;;;;5117035;27;20372;-76
2022/01/24 03:39:49;;;;;;;;;;;;;;;;;;5135926;27;19915;-77
2022/01/24 03:42:15;;;;;;;;;;;;;;;;;;5136190;27;20313;-77
2022/01/24 03:44:44;;;;;;;;;;;;;;;;;;5135997;27;20268;-77
2022/01/24 03:47:29;;;;;;;;;;;;;;;;;;5136045;27;19915;-77
2022/01/24 03:49:55;;;;;;;;;;;;;;;;;;5118470;27;19919;-76
2022/01/24 03:52:21;;;;;;;;;;;;;;;;;;5140226;27;19919;-77
2022/01/24 03:54:47;;;;;;;;;;;;;;;;;;5124451;27;19947;-78
2022/01/24 03:57:14;;;;;;;;;;;;;;;;;;5127729;27;19916;-78
2022/01/24 03:59:40;;;;;;;;;;;;;;;;;;5127588;27;19921;-78
2022/01/24 04:02:05;;;;;;;;;;;;;;;;;;5123897;27;19994;-77
2022/01/24 04:04:30;;;;;;;;;;;;;;;;;;5134959;27;20454;-77
2022/01/24 04:06:56;;;;;;;;;;;;;;;;;;5132141;27;19964;-77
2022/01/24 04:09:21;;;;;;;;;;;;;;;;;;5097109;28;19915;-77
2022/01/24 04:11:51;;;;;;;;;;;;;;;;;;5116192;28;20305;-78
2022/01/24 04:17:38;;;;;;;;;;;;;;;;;;5116193;28;19959;-78
2022/01/24 04:22:35;;;;;;;;;;;;;;;;;;5097037;28;19964;-78
2022/01/24 04:25:03;;;;;;;;;;;;;;;;;;5114427;28;19920;-78
2022/01/24 04:27:29;;;;;;;;;;;;;;;;;;5113486;28;20443;-78
2022/01/24 04:29:54;;;;;;;;;;;;;;;;;;5113448;28;19916;-78
2022/01/24 04:32:20;;;;;;;;;;;;;;;;;;5113514;28;19915;-78
2022/01/24 04:34:45;;;;;;;;;;;;;;;;;;5095036;28;19916;-78
2022/01/24 04:37:11;;;;;;;;;;;;;;;;;;5119153;27;19915;-78
2022/01/24 04:39:36;;;;;;;;;;;;;;;;;;5135894;27;19915;-78
2022/01/24 04:42:09;;;;;;;;;;;;;;;;;;5136254;27;19922;-77
2022/01/24 04:52:30;;;;;;;;;;;;;;;;;;5135882;27;19932;-77
2022/01/24 04:54:55;;;;;;;;;;;;;;;;;;5117774;28;19968;-77
2022/01/24 04:57:21;;;;;;;;;;;;;;;;;;5136699;27;19916;-77
2022/01/24 04:59:47;;;;;;;;;;;;;;;;;;5117547;28;19965;-78
2022/01/24 05:02:13;;;;;;;;;;;;;;;;;;5135418;27;20360;-77
2022/01/24 05:04:39;;;;;;;;;;;;;;;;;;5135729;28;19981;-77
2022/01/24 05:07:04;;;;;;;;;;;;;;;;;;5116815;28;19923;-77
2022/01/24 05:09:35;;;;;;;;;;;;;;;;;;5135681;27;20030;-77
2022/01/24 05:12:07;;;;;;;;;;;;;;;;;;5117172;28;20399;-77
2022/01/24 05:25:28;;;;;;;;;;;;;;;;;;5121037;27;19972;-77
2022/01/24 05:27:54;;;;;;;;;;;;;;;;;;5139132;27;19919;-77
2022/01/24 05:30:19;;;;;;;;;;;;;;;;;;5138323;27;20018;-77
2022/01/24 05:32:44;;;;;;;;;;;;;;;;;;5138809;27;19915;-77
2022/01/24 05:35:10;;;;;;;;;;;;;;;;;;5139331;27;20353;-77
2022/01/24 05:37:35;;;;;;;;;;;;;;;;;;5139725;27;19916;-77
2022/01/24 05:40:02;;;;;;;;;;;;;;;;;;5138878;27;19916;-77
2022/01/24 05:42:28;;;;;;;;;;;;;;;;;;5138928;27;20414;-77
2022/01/24 05:44:53;;;;;;;;;;;;;;;;;;5139151;27;19919;-77
2022/01/24 05:47:19;;;;;;;;;;;;;;;;;;5120251;27;19916;-78
2022/01/24 05:49:44;;;;;;;;;;;;;;;;;;5138920;27;19924;-77
2022/01/24 05:52:10;;;;;;;;;;;;;;;;;;5138963;27;20330;-77
2022/01/24 05:54:39;;;;;;;;;;;;;;;;;;5139023;27;19921;-77
2022/01/24 05:57:05;;;;;;;;;;;;;;;;;;5139270;27;20353;-77
2022/01/24 05:59:31;;;;;;;;;;;;;;;;;;5138681;27;19961;-77
2022/01/24 06:01:57;;;;;;;;;;;;;;;;;;5138922;27;19916;-77
2022/01/24 06:04:22;;;;;;;;;;;;;;;;;;5120702;27;20268;-75
2022/01/24 06:06:47;;;;;;;;;;;;;;;;;;5139450;27;19919;-76
2022/01/24 06:09:12;;;;;;;;;;;;;;;;;;5138020;27;20314;-75
2022/01/24 06:11:38;;;;;;;;;;;;;;;;;;5119446;27;19961;-74
2022/01/24 06:14:04;;;;;;;;;;;;;;;;;;5137800;27;19916;-74
2022/01/24 06:16:29;;;;;;;;;;;;;;;;;;5137813;27;19923;-75
2022/01/24 06:18:55;;;;;;;;;;;;;;;;;;5137716;27;20048;-75
2022/01/24 06:21:20;;;;;;;;;;;;;;;;;;5118778;27;19949;-76
2022/01/24 06:23:45;;;;;;;;;;;;;;;;;;5137590;27;19919;-74
2022/01/24 06:26:11;;;;;;;;;;;;;;;;;;5136224;27;19919;-76
2022/01/24 06:28:36;;;;;;;;;;;;;;;;;;5137013;27;19920;-74
2022/01/24 06:31:02;;;;;;;;;;;;;;;;;;5137588;27;20373;-75
2022/01/24 06:33:27;;;;;;;;;;;;;;;;;;5137641;27;19920;-76
2022/01/24 06:35:52;;;;;;;;;;;;;;;;;;5136824;27;20425;-74
2022/01/24 06:38:18;;;;;;;;;;;;;;;;;;5136199;27;19915;-75
2022/01/24 06:40:43;;;;;;;;;;;;;;;;;;5137261;27;19919;-75
2022/01/24 06:43:08;;;;;;;;;;;;;;;;;;5100344;27;19958;-74
2022/01/24 06:45:34;;;;;;;;;;;;;;;;;;5116583;28;19920;-75
2022/01/24 06:47:59;;;;;;;;;;;;;;;;;;5116973;28;19916;-77
2022/01/24 06:50:24;;;;;;;;;;;;;;;;;;5117652;28;19927;-76
2022/01/24 06:52:50;;;;;;;;;;;;;;;;;;5118294;28;19960;-77
2022/01/24 06:55:16;;;;;;;;;;;;;;;;;;5117560;28;19920;-76
2022/01/24 06:57:41;;;;;;;;;;;;;;;;;;5109790;27;20330;-76
2022/01/24 07:00:07;;;;;;;;;;;;;;;;;;5138614;27;19922;-79
2022/01/24 07:02:32;;;;;;;;;;;;;;;;;;5137442;27;19916;-76
2022/01/24 07:04:57;;;;;;;;;;;;;;;;;;5117688;27;20272;-76
2022/01/24 07:07:23;;;;;;;;;;;;;;;;;;5136718;27;19915;-76
2022/01/24 07:09:48;;;;;;;;;;;;;;;;;;5136922;27;19956;-76
2022/01/24 07:12:13;;;;;;;;;;;;;;;;;;5136619;27;19916;-76
2022/01/24 07:14:41;;;;;;;;;;;;;;;;;;5136589;27;19984;-76
2022/01/24 07:17:30;;;;;;;;;;;;;;;;;;5136733;27;20328;-76
2022/01/24 07:19:52;;;;;;;;;;;;;;;;;;5135670;27;19915;-76
2022/01/24 07:22:17;;;;;;;;;;;;;;;;;;5136661;27;19919;-76
2022/01/24 07:24:42;;;;;;;;;;;;;;;;;;5117786;27;19923;-76
2022/01/24 07:27:08;;;;;;;;;;;;;;;;;;5135753;27;20002;-76
2022/01/24 07:29:33;;;;;;;;;;;;;;;;;;5136387;27;19921;-76
2022/01/24 07:31:59;;;;;;;;;;;;;;;;;;5136564;27;19915;-76
2022/01/24 07:34:25;;;;;;;;;;;;;;;;;;5136486;27;19955;-76
2022/01/24 07:36:51;;;;;;;;;;;;;;;;;;5135196;27;20298;-76
2022/01/24 07:39:17;;;;;;;;;;;;;;;;;;5135990;27;19968;-76
2022/01/24 07:41:45;;;;;;;;;;;;;;;;;;5136301;27;19923;-76
2022/01/24 07:44:16;;;;;;;;;;;;;;;;;;5136284;27;19919;-76
2022/01/24 07:46:41;;;;;;;;;;;;;;;;;;5136280;27;19960;-76
2022/01/24 07:49:08;;;;;;;;;;;;;;;;;;5135729;27;19924;-76
2022/01/24 07:51:34;;;;;;;;;;;;;;;;;;5135763;27;20425;-76
2022/01/24 07:53:59;;;;;;;;;;;;;;;;;;5135722;27;19915;-78
2022/01/24 07:56:25;;;;;;;;;;;;;;;;;;5136890;27;19960;-77
2022/01/24 07:58:50;;;;;;;;;;;;;;;;;;5136097;27;19975;-80
2022/01/24 08:01:16;;;;;;;;;;;;;;;;;;5135160;27;19916;-75
2022/01/24 08:03:41;;;;;;;;;;;;;;;;;;5135702;27;19922;-75
2022/01/24 08:06:06;;;;;;;;;;;;;;;;;;5135679;27;19922;-75
2022/01/24 08:08:31;;;;;;;;;;;;;;;;;;5135339;27;20472;-74
2022/01/24 08:10:57;;;;;;;;;;;;;;;;;;5135689;27;19922;-75
2022/01/24 08:13:22;;;;;;;;;;;;;;;;;;5136068;27;19965;-76
2022/01/24 08:15:47;;;;;;;;;;;;;;;;;;5135765;27;20006;-76
2022/01/24 08:18:14;;;;;;;;;;;;;;;;;;5135114;27;19922;-76
2022/01/24 08:20:40;;;;;;;;;;;;;;;;;;5116994;27;20352;-79
2022/01/24 08:23:05;;;;;;;;;;;;;;;;;;5118059;27;19951;-77
2022/01/24 08:25:30;;;;;;;;;;;;;;;;;;5135189;27;19920;-76
2022/01/24 08:27:56;;;;;;;;;;;;;;;;;;5135441;27;19916;-77
2022/01/24 08:30:22;;;;;;;;;;;;;;;;;;5117640;27;20027;-77
2022/01/24 08:32:47;;;;;;;;;;;;;;;;;;5118048;27;20438;-77
2022/01/24 08:35:16;;;;;;;;;;;;;;;;;;5135896;27;19983;-77
2022/01/24 08:37:43;;;;;;;;;;;;;;;;;;5135061;27;19916;-77
2022/01/24 08:40:25;;;;;;;;;;;;;;;;;;5097962;28;19922;-77
2022/01/24 08:42:58;;;;;;;;;;;;;;;;;;5134725;27;19916;-76
2022/01/24 08:48:07;;;;;;;;;;;;;;;;;;5135127;27;20379;-77
2022/01/24 08:50:33;;;;;;;;;;;;;;;;;;5112520;28;19964;-77
2022/01/24 08:53:02;;;;;;;;;;;;;;;;;;5114586;28;19959;-77
2022/01/24 08:55:28;;;;;;;;;;;;;;;;;;5113210;28;19926;-77
2022/01/24 08:57:54;;;;;;;;;;;;;;;;;;5114493;28;20289;-77
2022/01/24 09:00:19;;;;;;;;;;;;;;;;;;5113944;28;19916;-77
2022/01/24 09:02:45;;;;;;;;;;;;;;;;;;5114408;28;20438;-77
2022/01/24 09:05:10;;;;;;;;;;;;;;;;;;5114324;28;19927;-77
2022/01/24 09:07:36;;;;;;;;;;;;;;;;;;5114800;28;19916;-77
2022/01/24 09:10:02;;;;;;;;;;;;;;;;;;5114345;28;19923;-77
2022/01/24 09:12:27;;;;;;;;;;;;;;;;;;5114560;28;20354;-77
2022/01/24 09:14:52;;;;;;;;;;;;;;;;;;5114257;28;19922;-77
2022/01/24 09:17:18;;;;;;;;;;;;;;;;;;5113013;28;19920;-77
2022/01/24 09:19:43;;;;;;;;;;;;;;;;;;5114326;28;19923;-77
2022/01/24 09:22:08;;;;;;;;;;;;;;;;;;5114516;28;19915;-77
2022/01/24 09:24:34;;;;;;;;;;;;;;;;;;5114251;28;19920;-77
2022/01/24 09:26:59;;;;;;;;;;;;;;;;;;5113483;28;19915;-77
2022/01/24 09:29:25;;;;;;;;;;;;;;;;;;5114083;28;19916;-77
2022/01/24 09:31:50;;;;;;;;;;;;;;;;;;5114446;28;19923;-77
2022/01/24 09:34:15;;;;;;;;;;;;;;;;;;5114222;28;19922;-77
2022/01/24 09:36:41;;;;;;;;;;;;;;;;;;5114295;28;19955;-77
2022/01/24 09:39:06;;;;;;;;;;;;;;;;;;5114382;28;19923;-77
2022/01/24 09:41:31;;;;;;;;;;;;;;;;;;5112992;28;20032;-77
2022/01/24 09:43:57;;;;;;;;;;;;;;;;;;5113367;28;19926;-77
2022/01/24 09:46:22;;;;;;;;;;;;;;;;;;5114238;28;20002;-77
2022/01/24 09:48:48;;;;;;;;;;;;;;;;;;5114789;28;19969;-77
2022/01/24 09:51:13;;;;;;;;;;;;;;;;;;5134370;28;20448;-77
2022/01/24 09:53:39;;;;;;;;;;;;;;;;;;5134879;28;20022;-77
2022/01/24 09:56:05;;;;;;;;;;;;;;;;;;5134740;28;19915;-77
2022/01/24 09:58:31;;;;;;;;;;;;;;;;;;5134282;27;19965;-77
2022/01/24 10:00:58;;;;;;;;;;;;;;;;;;5116135;28;19970;-77
2022/01/24 10:03:24;;;;;;;;;;;;;;;;;;5137252;27;19915;-77
2022/01/24 10:05:54;;;;;;;;;;;;;;;;;;5138324;27;19919;-77
2022/01/24 10:08:19;;;;;;;;;;;;;;;;;;5138375;27;19922;-77
2022/01/24 10:10:46;;;;;;;;;;;;;;;;;;5138269;27;19916;-76
2022/01/24 10:16:25;;;;;;;;;;;;;;;;;;5119581;27;20391;-77
2022/01/24 10:19:06;;;;;;;;;;;;;;;;;;5138577;27;19923;-76
2022/01/24 10:21:45;;;;;;;;;;;;;;;;;;5136934;27;19923;-75
2022/01/24 10:24:29;;;;;;;;;;;;;;;;;;5137629;27;19972;-75
2022/01/24 10:27:08;;;;;;;;;;;;;;;;;;5138255;27;19922;-76
2022/01/24 10:29:34;;;;;;;;;;;;;;;;;;5137471;27;19968;-75
2022/01/24 10:31:59;;;;;;;;;;;;;;;;;;5137334;27;19915;-75
2022/01/24 10:34:35;;;;;;;;;;;;;;;;;;5137446;27;19966;-75
2022/01/24 10:37:00;;;;;;;;;;;;;;;;;;5137449;27;19915;-75
2022/01/24 10:39:43;;;;;;;;;;;;;;;;;;5137377;27;19915;-76
2022/01/24 10:44:51;;;;;;;;;;;;;;;;;;5137005;27;20014;-75
2022/01/24 10:47:18;;;;;;;;;;;;;;;;;;5136288;27;19958;-75
2022/01/24 10:49:44;;;;;;;;;;;;;;;;;;5136521;27;19933;-76
2022/01/24 10:52:14;;;;;;;;;;;;;;;;;;5137238;27;19938;-75
2022/01/24 10:54:39;;;;;;;;;;;;;;;;;;5137172;27;19916;-76
2022/01/24 10:57:05;;;;;;;;;;;;;;;;;;5136921;27;19922;-76
2022/01/24 10:59:33;;;;;;;;;;;;;;;;;;5136866;27;19921;-76
2022/01/24 11:02:01;;;;;;;;;;;;;;;;;;5136859;27;20276;-75
2022/01/24 11:04:27;;;;;;;;;;;;;;;;;;5136535;27;19926;-76
2022/01/24 11:06:54;;;;;;;;;;;;;;;;;;5136474;27;19923;-76
2022/01/24 11:09:22;;;;;;;;;;;;;;;;;;5136707;27;20013;-76
2022/01/24 11:11:48;;;;;;;;;;;;;;;;;;5118407;27;19919;-76
2022/01/24 11:14:16;;;;;;;;;;;;;;;;;;5136385;27;19966;-76
2022/01/24 11:16:42;;;;;;;;;;;;;;;;;;5136579;27;19972;-78
2022/01/24 11:19:13;;;;;;;;;;;;;;;;;;5140391;27;19923;-83
2022/01/24 11:21:39;;;;;;;;;;;;;;;;;;5141104;27;20412;-79
2022/01/24 11:24:07;;;;;;;;;;;;;;;;;;5132951;27;19947;-79
2022/01/24 11:26:33;;;;;;;;;;;;;;;;;;5121063;28;19919;-78
2022/01/24 11:28:58;;;;;;;;;;;;;;;;;;5118860;28;19919;-77
2022/01/24 11:31:26;;;;;;;;;;;;;;;;;;5130393;27;19915;-77
2022/01/24 11:34:04;;;;;;;;;;;;;;;;;;5137273;27;19915;-77
2022/01/24 11:36:41;;;;;;;;;;;;;;;;;;5107116;27;19919;-79
2022/01/24 11:39:06;;;;;;;;;;;;;;;;;;5144015;27;19915;-82
2022/01/24 11:41:35;;;;;;;;;;;;;;;;;;5120306;28;19958;-81
2022/01/24 11:44:08;;;;;;;;;;;;;;;;;;5123931;28;19926;-79
2022/01/24 11:46:41;;;;;;;;;;;;;;;;;;5124583;28;20293;-81
2022/01/24 11:49:08;;;;;;;;;;;;;;;;;;5130488;27;19926;-82
2022/01/24 11:51:34;;;;;;;;;;;;;;;;;;5114513;27;19922;-80
2022/01/24 11:53:59;;;;;;;;;;;;;;;;;;5131390;27;19916;-78
2022/01/24 11:56:28;;;;;;;;;;;;;;;;;;5094341;28;19962;-79
2022/01/24 11:59:13;;;;;;;;;;;;;;;;;;5110047;27;19999;-77
2022/01/24 12:01:40;;;;;;;;;;;;;;;;;;5134831;27;19919;-80
2022/01/24 12:04:05;;;;;;;;;;;;;;;;;;5123934;27;19919;-80
2022/01/24 12:06:50;;;;;;;;;;;;;;;;;;5139817;27;19922;-79
2022/01/24 12:09:23;;;;;;;;;;;;;;;;;;5139462;27;19922;-77
2022/01/24 12:11:48;;;;;;;;;;;;;;;;;;5140934;27;19919;-79
2022/01/24 12:14:23;;;;;;;;;;;;;;;;;;5124649;27;19918;-79
2022/01/24 12:16:48;;;;;;;;;;;;;;;;;;5122194;27;20001;-78
2022/01/24 12:19:14;;;;;;;;;;;;;;;;;;5119399;27;19984;-75
2022/01/24 12:21:43;;;;;;;;;;;;;;;;;;5118638;27;19922;-76
2022/01/24 12:24:13;;;;;;;;;;;;;;;;;;5116797;28;19930;-75
2022/01/24 12:26:39;;;;;;;;;;;;;;;;;;5134936;27;20358;-74
2022/01/24 12:29:06;;;;;;;;;;;;;;;;;;5135014;27;19916;-74
2022/01/24 12:31:36;;;;;;;;;;;;;;;;;;5134990;27;19961;-74
2022/01/24 12:34:04;;;;;;;;;;;;;;;;;;5135299;27;19968;-76
2022/01/24 12:36:39;;;;;;;;;;;;;;;;;;5135682;27;19915;-76
2022/01/24 12:39:12;;;;;;;;;;;;;;;;;;5135804;27;19922;-75
2022/01/24 12:41:39;;;;;;;;;;;;;;;;;;5135141;27;19919;-74
2022/01/24 12:46:31;;;;;;;;;;;;;;;;;;5134986;27;19994;-74
2022/01/24 12:48:58;;;;;;;;;;;;;;;;;;5134560;27;19915;-75
2022/01/24 12:51:24;;;;;;;;;;;;;;;;;;5135127;27;19916;-75
2022/01/24 12:53:50;;;;;;;;;;;;;;;;;;5134709;27;20345;-74
2022/01/24 12:56:19;;;;;;;;;;;;;;;;;;5134795;27;19922;-74
2022/01/24 12:58:46;;;;;;;;;;;;;;;;;;5134153;27;19919;-74
2022/01/24 13:01:18;;;;;;;;;;;;;;;;;;5134812;27;19922;-74
2022/01/24 13:03:52;;;;;;;;;;;;;;;;;;5133741;27;19959;-74
2022/01/24 13:06:17;;;;;;;;;;;;;;;;;;5134782;28;19922;-75
2022/01/24 13:08:56;;;;;;;;;;;;;;;;;;5134569;27;19915;-74
2022/01/24 13:11:22;;;;;;;;;;;;;;;;;;5116573;28;19923;-75
2022/01/24 13:14:08;;;;;;;;;;;;;;;;;;5134550;28;19915;-75
2022/01/24 13:22:30;;;;;;;;;;;;;;;;;;5134756;28;19965;-74
2022/01/24 13:25:03;;;;;;;;;;;;;;;;;;5116265;28;19926;-74
2022/01/24 13:27:36;;;;;;;;;;;;;;;;;;5134710;28;20284;-74
2022/01/24 13:30:03;;;;;;;;;;;;;;;;;;5134325;27;20312;-75
2022/01/24 13:32:42;;;;;;;;;;;;;;;;;;5134519;28;19919;-74
2022/01/24 13:35:27;;;;;;;;;;;;;;;;;;5134518;28;19928;-75
2022/01/24 13:38:07;;;;;;;;;;;;;;;;;;5138609;27;20304;-75
2022/01/24 13:40:36;;;;;;;;;;;;;;;;;;5120640;27;19984;-75
2022/01/24 13:43:02;;;;;;;;;;;;;;;;;;5138166;27;19922;-77
2022/01/24 13:45:27;;;;;;;;;;;;;;;;;;5120413;27;19915;-75
2022/01/24 13:47:59;;;;;;;;;;;;;;;;;;5138325;27;20388;-75
2022/01/24 13:50:25;;;;;;;;;;;;;;;;;;5138062;27;19919;-75
2022/01/24 13:52:50;;;;;;;;;;;;;;;;;;5138616;27;20373;-76
2022/01/24 13:55:17;;;;;;;;;;;;;;;;;;5137782;27;20434;-75
2022/01/24 13:57:43;;;;;;;;;;;;;;;;;;5137525;27;20030;-75
2022/01/24 14:00:09;;;;;;;;;;;;;;;;;;5137695;27;20022;-75
2022/01/24 14:02:37;;;;;;;;;;;;;;;;;;5136926;27;20444;-75
2022/01/24 14:05:03;;;;;;;;;;;;;;;;;;5116284;28;20019;-75
2022/01/24 14:07:34;;;;;;;;;;;;;;;;;;5117134;28;19923;-75
2022/01/24 14:10:02;;;;;;;;;;;;;;;;;;5098861;28;19916;-75
2022/01/24 14:12:35;;;;;;;;;;;;;;;;;;5099333;28;20317;-75
2022/01/24 14:15:12;;;;;;;;;;;;;;;;;;5098828;28;19922;-75
2022/01/24 14:20:16;;;;;;;;;;;;;;;;;;5117193;28;20330;-76
2022/01/24 14:22:49;;;;;;;;;;;;;;;;;;5117239;28;19998;-76
2022/01/24 14:25:15;;;;;;;;;;;;;;;;;;5117132;28;20392;-73
2022/01/24 14:27:43;;;;;;;;;;;;;;;;;;5098701;28;19916;-72
2022/01/24 14:30:11;;;;;;;;;;;;;;;;;;5117004;28;19919;-73
2022/01/24 14:32:38;;;;;;;;;;;;;;;;;;5098709;28;19923;-73
2022/01/24 14:35:07;;;;;;;;;;;;;;;;;;5117002;28;19958;-73
2022/01/24 14:37:49;;;;;;;;;;;;;;;;;;5116883;28;20374;-73
2022/01/24 14:40:33;;;;;;;;;;;;;;;;;;5116485;28;20014;-73
2022/01/24 14:44:53;;;;;;;;;;;;;;;;;;5116780;28;19960;-75
2022/01/24 14:45:44;;;;;;;;;;;;;;;;;;5122072;27;19919;-75
2022/01/24 14:48:09;;;;;;;;;;;;;;;;;;5136380;27;19911;-74
2022/01/24 14:50:36;;;;;;;;;;;;;;;;;;5136928;27;19923;-74
2022/01/24 14:53:04;;;;;;;;;;;;;;;;;;5137088;27;19915;-74
2022/01/24 14:55:30;;;;;;;;;;;;;;;;;;5136928;27;20010;-74
2022/01/24 14:57:56;;;;;;;;;;;;;;;;;;5137024;27;19960;-75
2022/01/24 15:00:21;;;;;;;;;;;;;;;;;;5136571;27;19915;-74
2022/01/24 15:02:46;;;;;;;;;;;;;;;;;;5137155;27;19922;-76
2022/01/24 15:05:11;;;;;;;;;;;;;;;;;;5117628;27;20334;-75
2022/01/24 15:07:37;;;;;;;;;;;;;;;;;;5136834;27;19915;-75
2022/01/24 15:10:03;;;;;;;;;;;;;;;;;;5136631;27;19916;-75
2022/01/24 15:12:29;;;;;;;;;;;;;;;;;;5136756;27;19942;-73
2022/01/24 15:14:54;;;;;;;;;;;;;;;;;;5118374;27;20364;-75
2022/01/24 15:27:42;;;;;;;;;;;;;;;;;;5136981;27;19923;-76
2022/01/24 15:30:08;;;;;;;;;;;;;;;;;;5118037;27;20022;-75
2022/01/24 15:32:34;;;;;;;;;;;;;;;;;;5136019;27;19951;-75
2022/01/24 15:34:59;;;;;;;;;;;;;;;;;;5117863;27;19916;-76
2022/01/24 15:37:24;;;;;;;;;;;;;;;;;;5136314;27;20377;-75
2022/01/24 15:39:50;;;;;;;;;;;;;;;;;;5136179;27;19915;-76
2022/01/24 15:42:19;;;;;;;;;;;;;;;;;;5136215;27;19919;-75
2022/01/24 15:47:38;;;;;;;;;;;;;;;;;;5135964;27;19921;-76
2022/01/24 15:50:06;;;;;;;;;;;;;;;;;;5135895;27;19926;-75
2022/01/24 15:52:32;;;;;;;;;;;;;;;;;;5135739;27;19970;-75
2022/01/24 15:55:04;;;;;;;;;;;;;;;;;;5117506;27;19916;-75
2022/01/24 15:57:39;;;;;;;;;;;;;;;;;;5117229;27;20352;-75
2022/01/24 16:00:25;;;;;;;;;;;;;;;;;;5134909;27;19915;-75
2022/01/24 16:02:52;;;;;;;;;;;;;;;;;;5135631;27;20421;-75
2022/01/24 16:05:19;;;;;;;;;;;;;;;;;;5135736;27;20280;-75
2022/01/24 16:07:45;;;;;;;;;;;;;;;;;;5135576;27;19916;-75
2022/01/24 16:10:11;;;;;;;;;;;;;;;;;;5135618;27;19915;-75
2022/01/24 16:12:37;;;;;;;;;;;;;;;;;;5135729;27;20381;-75
2022/01/24 16:15:03;;;;;;;;;;;;;;;;;;5117211;27;20010;-76
2022/01/24 16:17:29;;;;;;;;;;;;;;;;;;5135337;27;20422;-75
2022/01/24 16:19:56;;;;;;;;;;;;;;;;;;5116940;27;19922;-75
2022/01/24 16:22:45;;;;;;;;;;;;;;;;;;5134115;27;19919;-75
2022/01/24 16:27:54;;;;;;;;;;;;;;;;;;5135327;27;19923;-75
2022/01/24 16:30:20;;;;;;;;;;;;;;;;;;5135336;27;19915;-75
2022/01/24 16:32:45;;;;;;;;;;;;;;;;;;5134863;27;19915;-75
2022/01/24 16:35:10;;;;;;;;;;;;;;;;;;5134894;27;19922;-75
2022/01/24 16:37:36;;;;;;;;;;;;;;;;;;5134732;27;19921;-75
2022/01/24 16:40:04;;;;;;;;;;;;;;;;;;5134590;27;19951;-75
2022/01/24 16:42:31;;;;;;;;;;;;;;;;;;5135190;27;19921;-75
2022/01/24 16:45:12;;;;;;;;;;;;;;;;;;5135050;27;20262;-76
2022/01/24 16:47:38;;;;;;;;;;;;;;;;;;5116878;27;19916;-75
2022/01/24 16:50:03;;;;;;;;;;;;;;;;;;5134412;27;19920;-75
2022/01/24 16:52:31;;;;;;;;;;;;;;;;;;5135008;27;19922;-75
2022/01/24 16:54:56;;;;;;;;;;;;;;;;;;5135007;27;19958;-75
2022/01/24 16:57:21;;;;;;;;;;;;;;;;;;5135015;27;20360;-75
2022/01/24 16:59:49;;;;;;;;;;;;;;;;;;5134688;27;19924;-75
2022/01/24 17:02:15;;;;;;;;;;;;;;;;;;5134101;27;19916;-75
2022/01/24 17:04:40;;;;;;;;;;;;;;;;;;5134567;27;19927;-75
2022/01/24 17:07:06;;;;;;;;;;;;;;;;;;5134727;27;19916;-75
2022/01/24 17:09:31;;;;;;;;;;;;;;;;;;5134702;27;20280;-75
2022/01/24 17:12:00;;;;;;;;;;;;;;;;;;5140221;27;19951;-75
2022/01/24 17:14:27;;;;;;;;;;;;;;;;;;5141431;27;20289;-75
2022/01/24 17:16:53;;;;;;;;;;;;;;;;;;5141515;27;19916;-76
2022/01/24 17:19:19;;;;;;;;;;;;;;;;;;5141508;27;19919;-75
2022/01/24 17:21:45;;;;;;;;;;;;;;;;;;5141747;27;20300;-75
2022/01/24 17:24:10;;;;;;;;;;;;;;;;;;5141542;27;20380;-75
2022/01/24 17:26:38;;;;;;;;;;;;;;;;;;5133436;27;19912;-74
2022/01/24 17:29:05;;;;;;;;;;;;;;;;;;5125383;27;19922;-77
2022/01/24 17:31:30;;;;;;;;;;;;;;;;;;5121153;27;19923;-78
2022/01/24 17:33:56;;;;;;;;;;;;;;;;;;5123108;27;19919;-76
2022/01/24 17:36:21;;;;;;;;;;;;;;;;;;5105821;27;19973;-75
2022/01/24 17:38:47;;;;;;;;;;;;;;;;;;5140313;27;19915;-76
2022/01/24 17:41:12;;;;;;;;;;;;;;;;;;5141233;27;19923;-77
2022/01/24 17:43:37;;;;;;;;;;;;;;;;;;5141132;27;19938;-76
2022/01/24 17:46:03;;;;;;;;;;;;;;;;;;5140825;27;19919;-77
2022/01/24 17:48:30;;;;;;;;;;;;;;;;;;5141477;27;20005;-75
2022/01/24 17:50:55;;;;;;;;;;;;;;;;;;5140879;27;19920;-76
2022/01/24 17:53:23;;;;;;;;;;;;;;;;;;5140802;27;19922;-76
2022/01/24 17:55:49;;;;;;;;;;;;;;;;;;5105672;27;19919;-76
2022/01/24 17:58:15;;;;;;;;;;;;;;;;;;5134131;27;19975;-78
2022/01/24 18:00:42;;;;;;;;;;;;;;;;;;5123613;28;22267;-83
2022/01/24 18:03:08;;;;;;;;;;;;;;;;;;5112089;27;19916;-83
2022/01/24 18:05:33;;;;;;;;;;;;;;;;;;5129927;28;19972;-82
2022/01/24 18:07:59;;;;;;;;;;;;;;;;;;5127650;28;19919;-80
2022/01/24 18:10:24;;;;;;;;;;;;;;;;;;5143589;27;19915;-81
2022/01/24 18:12:52;;;;;;;;;;;;;;;;;;5147106;27;19915;-80
2022/01/24 18:15:18;;;;;;;;;;;;;;;;;;5128445;27;20322;-80
2022/01/24 18:17:44;;;;;;;;;;;;;;;;;;5146869;27;19915;-78
2022/01/24 18:20:10;;;;;;;;;;;;;;;;;;5140938;27;19937;-77
2022/01/24 18:22:35;;;;;;;;;;;;;;;;;;5138679;27;19937;-78
2022/01/24 18:25:00;;;;;;;;;;;;;;;;;;5140280;27;20383;-77
2022/01/24 18:27:29;;;;;;;;;;;;;;;;;;5139671;27;19919;-78
2022/01/24 18:29:55;;;;;;;;;;;;;;;;;;5121131;27;19915;-77
2022/01/24 18:32:20;;;;;;;;;;;;;;;;;;5139485;27;19938;-79
2022/01/24 18:34:45;;;;;;;;;;;;;;;;;;5139760;27;20272;-78
2022/01/24 18:37:10;;;;;;;;;;;;;;;;;;5137457;27;20304;-78
2022/01/24 18:39:36;;;;;;;;;;;;;;;;;;5138732;27;19915;-78
2022/01/24 18:42:09;;;;;;;;;;;;;;;;;;5141511;27;19929;-78
2022/01/24 18:44:36;;;;;;;;;;;;;;;;;;5138053;27;19919;-77
2022/01/24 18:47:02;;;;;;;;;;;;;;;;;;5136345;27;20006;-77
2022/01/24 18:49:27;;;;;;;;;;;;;;;;;;5137494;27;19954;-74
2022/01/24 18:51:53;;;;;;;;;;;;;;;;;;5119445;27;20424;-77
2022/01/24 18:54:21;;;;;;;;;;;;;;;;;;5118466;27;20264;-75
2022/01/24 18:56:46;;;;;;;;;;;;;;;;;;5118867;27;20314;-77